sensor_id;sensor_type;location;lat;lon;timestamp;P1;durP1;ratioP1;P2;durP2;ratioP2
18716;SDS011;9487;50.892;6.906;2024-03-23T00:51:12;27.63;;;16.33;;
18716;SDS011;9487;50.892;6.906;2024-03-23T00:53:40;29.73;;;17.20;;
18716;SDS011;9487;50.892;6.906;2024-03-23T00:56:06;29.07;;;17.07;;
18716;SDS011;9487;50.892;6.906;2024-03-23T00:58:33;29.57;;;17.30;;
18716;SDS011;9487;50.892;6.906;2024-03-23T01:01:00;34.70;;;18.43;;
18716;SDS011;9487;50.892;6.906;2024-03-23T01:03:28;37.97;;;18.33;;
18716;SDS011;9487;50.892;6.906;2024-03-23T01:05:54;27.27;;;17.30;;
18716;SDS011;9487;50.892;6.906;2024-03-23T01:08:26;33.33;;;19.47;;
18716;SDS011;9487;50.892;6.906;2024-03-23T01:10:55;34.97;;;19.43;;
18716;SDS011;9487;50.892;6.906;2024-03-23T01:13:22;37.00;;;18.23;;
18716;SDS011;9487;50.892;6.906;2024-03-23T01:15:49;32.57;;;17.53;;
18716;SDS011;9487;50.892;6.906;2024-03-23T01:18:16;28.50;;;17.53;;
18716;SDS011;9487;50.892;6.906;2024-03-23T01:20:42;28.07;;;18.13;;
18716;SDS011;9487;50.892;6.906;2024-03-23T01:23:09;30.53;;;17.47;;
18716;SDS011;9487;50.892;6.906;2024-03-23T01:25:37;22.20;;;13.10;;
18716;SDS011;9487;50.892;6.906;2024-03-23T01:28:04;15.60;;;9.43;;
18716;SDS011;9487;50.892;6.906;2024-03-23T01:30:31;11.37;;;7.87;;
18716;SDS011;9487;50.892;6.906;2024-03-23T01:32:58;11.47;;;7.30;;
18716;SDS011;9487;50.892;6.906;2024-03-23T01:35:24;11.07;;;7.53;;
18716;SDS011;9487;50.892;6.906;2024-03-23T01:37:51;15.13;;;8.77;;
18716;SDS011;9487;50.892;6.906;2024-03-23T01:40:17;15.33;;;9.23;;
18716;SDS011;9487;50.892;6.906;2024-03-23T01:42:56;16.30;;;10.00;;
18716;SDS011;9487;50.892;6.906;2024-03-23T01:45:22;16.43;;;10.70;;
18716;SDS011;9487;50.892;6.906;2024-03-23T01:47:49;17.03;;;11.67;;
18716;SDS011;9487;50.892;6.906;2024-03-23T01:50:15;19.63;;;13.33;;
18716;SDS011;9487;50.892;6.906;2024-03-23T01:52:43;21.90;;;14.53;;
18716;SDS011;9487;50.892;6.906;2024-03-23T01:55:09;23.67;;;15.73;;
18716;SDS011;9487;50.892;6.906;2024-03-23T01:57:36;22.10;;;15.83;;
18716;SDS011;9487;50.892;6.906;2024-03-23T02:00:04;25.33;;;17.50;;
18716;SDS011;9487;50.892;6.906;2024-03-23T02:02:32;27.50;;;17.23;;
18716;SDS011;9487;50.892;6.906;2024-03-23T02:04:58;24.67;;;16.60;;
18716;SDS011;9487;50.892;6.906;2024-03-23T02:07:25;26.20;;;18.13;;
18716;SDS011;9487;50.892;6.906;2024-03-23T02:09:51;28.07;;;17.63;;
18716;SDS011;9487;50.892;6.906;2024-03-23T02:12:18;25.37;;;16.57;;
18716;SDS011;9487;50.892;6.906;2024-03-23T02:14:46;22.97;;;15.13;;
18716;SDS011;9487;50.892;6.906;2024-03-23T02:17:14;22.87;;;13.27;;
18716;SDS011;9487;50.892;6.906;2024-03-23T02:19:41;19.40;;;12.77;;
18716;SDS011;9487;50.892;6.906;2024-03-23T02:22:07;18.67;;;12.13;;
18716;SDS011;9487;50.892;6.906;2024-03-23T02:24:36;21.37;;;11.27;;
18716;SDS011;9487;50.892;6.906;2024-03-23T02:27:04;18.43;;;10.23;;
18716;SDS011;9487;50.892;6.906;2024-03-23T02:29:30;17.40;;;10.10;;
18716;SDS011;9487;50.892;6.906;2024-03-23T02:31:57;11.83;;;5.83;;
18716;SDS011;9487;50.892;6.906;2024-03-23T02:34:23;8.37;;;4.13;;
18716;SDS011;9487;50.892;6.906;2024-03-23T02:36:50;6.97;;;2.87;;
18716;SDS011;9487;50.892;6.906;2024-03-23T02:39:16;5.50;;;1.97;;
18716;SDS011;9487;50.892;6.906;2024-03-23T02:41:45;3.50;;;1.90;;
18716;SDS011;9487;50.892;6.906;2024-03-23T02:44:12;4.47;;;1.50;;
18716;SDS011;9487;50.892;6.906;2024-03-23T02:46:39;7.53;;;2.20;;
18716;SDS011;9487;50.892;6.906;2024-03-23T02:49:05;3.57;;;1.60;;
18716;SDS011;9487;50.892;6.906;2024-03-23T02:51:32;5.60;;;2.00;;
18716;SDS011;9487;50.892;6.906;2024-03-23T02:53:58;6.47;;;2.10;;
18716;SDS011;9487;50.892;6.906;2024-03-23T02:56:25;6.87;;;2.00;;
18716;SDS011;9487;50.892;6.906;2024-03-23T02:58:52;6.90;;;2.20;;
18716;SDS011;9487;50.892;6.906;2024-03-23T03:01:19;7.70;;;2.07;;
18716;SDS011;9487;50.892;6.906;2024-03-23T03:03:45;7.03;;;3.03;;
18716;SDS011;9487;50.892;6.906;2024-03-23T03:06:22;6.47;;;1.80;;
18716;SDS011;9487;50.892;6.906;2024-03-23T03:08:48;6.00;;;2.80;;
18716;SDS011;9487;50.892;6.906;2024-03-23T03:11:15;7.87;;;2.13;;
18716;SDS011;9487;50.892;6.906;2024-03-23T03:13:41;9.73;;;2.30;;
18716;SDS011;9487;50.892;6.906;2024-03-23T03:16:10;12.30;;;2.37;;
18716;SDS011;9487;50.892;6.906;2024-03-23T03:18:36;7.07;;;2.60;;
18716;SDS011;9487;50.892;6.906;2024-03-23T03:21:03;7.00;;;2.47;;
18716;SDS011;9487;50.892;6.906;2024-03-23T03:23:30;8.17;;;2.63;;
18716;SDS011;9487;50.892;6.906;2024-03-23T03:25:57;8.13;;;2.93;;
18716;SDS011;9487;50.892;6.906;2024-03-23T03:28:23;6.63;;;2.53;;
18716;SDS011;9487;50.892;6.906;2024-03-23T03:30:51;7.83;;;2.07;;
18716;SDS011;9487;50.892;6.906;2024-03-23T03:33:18;10.63;;;2.50;;
18716;SDS011;9487;50.892;6.906;2024-03-23T03:35:45;10.43;;;2.60;;
18716;SDS011;9487;50.892;6.906;2024-03-23T03:38:11;9.37;;;2.00;;
18716;SDS011;9487;50.892;6.906;2024-03-23T03:40:38;8.23;;;2.13;;
18716;SDS011;9487;50.892;6.906;2024-03-23T03:43:04;7.80;;;2.53;;
18716;SDS011;9487;50.892;6.906;2024-03-23T03:45:31;8.87;;;2.20;;
18716;SDS011;9487;50.892;6.906;2024-03-23T03:47:57;8.80;;;2.43;;
18716;SDS011;9487;50.892;6.906;2024-03-23T03:50:26;9.87;;;2.37;;
18716;SDS011;9487;50.892;6.906;2024-03-23T03:52:52;10.03;;;2.07;;
18716;SDS011;9487;50.892;6.906;2024-03-23T03:55:19;6.37;;;2.37;;
18716;SDS011;9487;50.892;6.906;2024-03-23T03:57:45;8.97;;;2.50;;
18716;SDS011;9487;50.892;6.906;2024-03-23T04:00:12;10.47;;;2.20;;
18716;SDS011;9487;50.892;6.906;2024-03-23T04:02:38;7.37;;;2.03;;
18716;SDS011;9487;50.892;6.906;2024-03-23T04:05:06;9.90;;;2.33;;
18716;SDS011;9487;50.892;6.906;2024-03-23T04:07:34;10.63;;;2.40;;
18716;SDS011;9487;50.892;6.906;2024-03-23T04:10:01;9.33;;;2.53;;
18716;SDS011;9487;50.892;6.906;2024-03-23T04:12:30;8.00;;;2.17;;
18716;SDS011;9487;50.892;6.906;2024-03-23T04:14:57;6.70;;;2.30;;
18716;SDS011;9487;50.892;6.906;2024-03-23T04:17:23;7.97;;;2.57;;
18716;SDS011;9487;50.892;6.906;2024-03-23T04:19:54;10.90;;;2.70;;
18716;SDS011;9487;50.892;6.906;2024-03-23T04:22:21;7.73;;;2.10;;
18716;SDS011;9487;50.892;6.906;2024-03-23T04:24:50;7.67;;;2.43;;
18716;SDS011;9487;50.892;6.906;2024-03-23T04:27:16;7.47;;;2.27;;
18716;SDS011;9487;50.892;6.906;2024-03-23T04:29:46;7.00;;;1.87;;
18716;SDS011;9487;50.892;6.906;2024-03-23T04:32:13;8.27;;;2.57;;
18716;SDS011;9487;50.892;6.906;2024-03-23T04:34:40;7.70;;;2.40;;
18716;SDS011;9487;50.892;6.906;2024-03-23T04:37:06;9.23;;;2.30;;
18716;SDS011;9487;50.892;6.906;2024-03-23T04:39:33;11.93;;;2.70;;
18716;SDS011;9487;50.892;6.906;2024-03-23T04:42:02;11.03;;;2.40;;
18716;SDS011;9487;50.892;6.906;2024-03-23T04:44:29;11.00;;;2.93;;
18716;SDS011;9487;50.892;6.906;2024-03-23T04:46:55;6.43;;;2.50;;
18716;SDS011;9487;50.892;6.906;2024-03-23T04:49:22;6.47;;;2.20;;
18716;SDS011;9487;50.892;6.906;2024-03-23T04:51:49;8.87;;;2.50;;
18716;SDS011;9487;50.892;6.906;2024-03-23T04:54:16;14.17;;;3.13;;
18716;SDS011;9487;50.892;6.906;2024-03-23T04:56:42;8.23;;;2.63;;
18716;SDS011;9487;50.892;6.906;2024-03-23T04:59:10;10.10;;;2.83;;
18716;SDS011;9487;50.892;6.906;2024-03-23T05:01:36;12.00;;;3.17;;
18716;SDS011;9487;50.892;6.906;2024-03-23T05:04:06;9.50;;;2.57;;
18716;SDS011;9487;50.892;6.906;2024-03-23T05:06:33;10.13;;;3.33;;
18716;SDS011;9487;50.892;6.906;2024-03-23T05:09:00;10.17;;;2.87;;
18716;SDS011;9487;50.892;6.906;2024-03-23T05:11:28;8.30;;;2.43;;
18716;SDS011;9487;50.892;6.906;2024-03-23T05:13:55;12.40;;;3.57;;
18716;SDS011;9487;50.892;6.906;2024-03-23T05:16:22;8.00;;;2.60;;
18716;SDS011;9487;50.892;6.906;2024-03-23T05:18:49;9.37;;;2.80;;
18716;SDS011;9487;50.892;6.906;2024-03-23T05:21:15;8.60;;;2.43;;
18716;SDS011;9487;50.892;6.906;2024-03-23T05:23:42;8.33;;;2.43;;
18716;SDS011;9487;50.892;6.906;2024-03-23T05:26:08;7.53;;;2.60;;
18716;SDS011;9487;50.892;6.906;2024-03-23T05:28:35;9.37;;;2.57;;
18716;SDS011;9487;50.892;6.906;2024-03-23T05:31:01;9.83;;;3.07;;
18716;SDS011;9487;50.892;6.906;2024-03-23T05:33:30;10.47;;;3.27;;
18716;SDS011;9487;50.892;6.906;2024-03-23T05:35:56;10.30;;;3.13;;
18716;SDS011;9487;50.892;6.906;2024-03-23T05:38:24;11.17;;;3.47;;
18716;SDS011;9487;50.892;6.906;2024-03-23T05:40:53;11.40;;;3.40;;
18716;SDS011;9487;50.892;6.906;2024-03-23T05:43:20;12.50;;;3.30;;
18716;SDS011;9487;50.892;6.906;2024-03-23T05:45:52;11.63;;;3.30;;
18716;SDS011;9487;50.892;6.906;2024-03-23T05:48:19;9.87;;;2.70;;
18716;SDS011;9487;50.892;6.906;2024-03-23T05:50:47;9.70;;;2.83;;
18716;SDS011;9487;50.892;6.906;2024-03-23T05:53:14;12.43;;;2.97;;
18716;SDS011;9487;50.892;6.906;2024-03-23T05:55:41;10.97;;;3.47;;
18716;SDS011;9487;50.892;6.906;2024-03-23T05:58:08;12.33;;;3.70;;
18716;SDS011;9487;50.892;6.906;2024-03-23T06:00:34;9.67;;;3.70;;
18716;SDS011;9487;50.892;6.906;2024-03-23T06:03:01;12.20;;;3.63;;
18716;SDS011;9487;50.892;6.906;2024-03-23T06:05:27;11.93;;;3.73;;
18716;SDS011;9487;50.892;6.906;2024-03-23T06:07:55;14.07;;;4.17;;
18716;SDS011;9487;50.892;6.906;2024-03-23T06:10:21;10.43;;;3.40;;
18716;SDS011;9487;50.892;6.906;2024-03-23T06:12:48;14.87;;;4.13;;
18716;SDS011;9487;50.892;6.906;2024-03-23T06:15:17;11.90;;;3.50;;
18716;SDS011;9487;50.892;6.906;2024-03-23T06:17:44;10.90;;;3.87;;
18716;SDS011;9487;50.892;6.906;2024-03-23T06:20:10;9.20;;;3.70;;
18716;SDS011;9487;50.892;6.906;2024-03-23T06:22:37;8.17;;;3.67;;
18716;SDS011;9487;50.892;6.906;2024-03-23T06:25:05;11.97;;;4.13;;
18716;SDS011;9487;50.892;6.906;2024-03-23T06:27:33;11.57;;;3.77;;
18716;SDS011;9487;50.892;6.906;2024-03-23T06:29:59;8.73;;;3.60;;
18716;SDS011;9487;50.892;6.906;2024-03-23T06:32:27;9.80;;;3.57;;
18716;SDS011;9487;50.892;6.906;2024-03-23T06:34:54;10.90;;;3.50;;
18716;SDS011;9487;50.892;6.906;2024-03-23T06:37:21;12.97;;;3.23;;
18716;SDS011;9487;50.892;6.906;2024-03-23T06:39:47;6.97;;;3.30;;
18716;SDS011;9487;50.892;6.906;2024-03-23T06:42:15;11.43;;;3.40;;
18716;SDS011;9487;50.892;6.906;2024-03-23T06:44:41;12.67;;;3.17;;
18716;SDS011;9487;50.892;6.906;2024-03-23T06:47:08;10.30;;;3.67;;
18716;SDS011;9487;50.892;6.906;2024-03-23T06:49:34;11.30;;;3.40;;
18716;SDS011;9487;50.892;6.906;2024-03-23T06:52:01;11.73;;;3.10;;
18716;SDS011;9487;50.892;6.906;2024-03-23T06:54:26;10.73;;;3.00;;
18716;SDS011;9487;50.892;6.906;2024-03-23T06:56:53;11.27;;;2.63;;
18716;SDS011;9487;50.892;6.906;2024-03-23T06:59:20;10.70;;;3.40;;
18716;SDS011;9487;50.892;6.906;2024-03-23T07:01:47;9.10;;;2.80;;
18716;SDS011;9487;50.892;6.906;2024-03-23T07:04:13;10.53;;;3.50;;
18716;SDS011;9487;50.892;6.906;2024-03-23T07:06:43;9.87;;;3.43;;
18716;SDS011;9487;50.892;6.906;2024-03-23T07:09:10;10.03;;;3.33;;
18716;SDS011;9487;50.892;6.906;2024-03-23T07:11:37;10.43;;;3.70;;
18716;SDS011;9487;50.892;6.906;2024-03-23T07:14:03;8.80;;;3.73;;
18716;SDS011;9487;50.892;6.906;2024-03-23T07:16:32;12.23;;;4.40;;
18716;SDS011;9487;50.892;6.906;2024-03-23T07:18:58;11.03;;;4.77;;
18716;SDS011;9487;50.892;6.906;2024-03-23T07:21:24;12.63;;;4.67;;
18716;SDS011;9487;50.892;6.906;2024-03-23T07:23:50;12.00;;;4.97;;
18716;SDS011;9487;50.892;6.906;2024-03-23T07:26:17;13.43;;;5.67;;
18716;SDS011;9487;50.892;6.906;2024-03-23T07:28:44;16.93;;;5.80;;
18716;SDS011;9487;50.892;6.906;2024-03-23T07:31:11;15.23;;;6.17;;
18716;SDS011;9487;50.892;6.906;2024-03-23T07:33:43;14.80;;;6.60;;
18716;SDS011;9487;50.892;6.906;2024-03-23T07:36:11;14.73;;;6.70;;
18716;SDS011;9487;50.892;6.906;2024-03-23T07:38:37;12.43;;;6.20;;
18716;SDS011;9487;50.892;6.906;2024-03-23T07:41:06;14.47;;;6.07;;
18716;SDS011;9487;50.892;6.906;2024-03-23T07:43:35;10.03;;;6.00;;
18716;SDS011;9487;50.892;6.906;2024-03-23T07:46:02;14.03;;;6.67;;
18716;SDS011;9487;50.892;6.906;2024-03-23T07:48:29;15.27;;;7.00;;
18716;SDS011;9487;50.892;6.906;2024-03-23T07:50:59;14.83;;;6.93;;
18716;SDS011;9487;50.892;6.906;2024-03-23T07:53:26;14.33;;;7.57;;
18716;SDS011;9487;50.892;6.906;2024-03-23T07:55:57;12.40;;;6.87;;
18716;SDS011;9487;50.892;6.906;2024-03-23T07:58:24;14.67;;;7.37;;
18716;SDS011;9487;50.892;6.906;2024-03-23T08:00:51;13.93;;;6.90;;
18716;SDS011;9487;50.892;6.906;2024-03-23T08:03:17;13.23;;;6.80;;
18716;SDS011;9487;50.892;6.906;2024-03-23T08:05:44;12.80;;;6.00;;
18716;SDS011;9487;50.892;6.906;2024-03-23T08:08:12;12.30;;;5.60;;
18716;SDS011;9487;50.892;6.906;2024-03-23T08:10:47;9.40;;;4.00;;
18716;SDS011;9487;50.892;6.906;2024-03-23T08:13:13;9.53;;;3.20;;
18716;SDS011;9487;50.892;6.906;2024-03-23T08:15:40;6.20;;;2.63;;
18716;SDS011;9487;50.892;6.906;2024-03-23T08:18:06;5.87;;;2.17;;
18716;SDS011;9487;50.892;6.906;2024-03-23T08:20:35;5.77;;;2.67;;
18716;SDS011;9487;50.892;6.906;2024-03-23T08:23:01;4.47;;;2.10;;
18716;SDS011;9487;50.892;6.906;2024-03-23T08:25:30;5.77;;;2.10;;
18716;SDS011;9487;50.892;6.906;2024-03-23T08:27:56;2.87;;;1.50;;
18716;SDS011;9487;50.892;6.906;2024-03-23T08:30:24;7.10;;;2.47;;
18716;SDS011;9487;50.892;6.906;2024-03-23T08:32:50;5.53;;;3.47;;
18716;SDS011;9487;50.892;6.906;2024-03-23T08:35:17;11.33;;;4.07;;
18716;SDS011;9487;50.892;6.906;2024-03-23T08:37:43;11.33;;;4.00;;
18716;SDS011;9487;50.892;6.906;2024-03-23T08:40:10;8.70;;;3.40;;
18716;SDS011;9487;50.892;6.906;2024-03-23T08:42:38;7.87;;;3.93;;
18716;SDS011;9487;50.892;6.906;2024-03-23T08:45:05;6.43;;;4.47;;
18716;SDS011;9487;50.892;6.906;2024-03-23T08:47:33;10.00;;;5.87;;
18716;SDS011;9487;50.892;6.906;2024-03-23T08:50:01;10.03;;;6.33;;
18716;SDS011;9487;50.892;6.906;2024-03-23T08:52:27;13.83;;;6.50;;
18716;SDS011;9487;50.892;6.906;2024-03-23T08:54:54;14.17;;;6.90;;
18716;SDS011;9487;50.892;6.906;2024-03-23T08:57:21;12.83;;;6.97;;
18716;SDS011;9487;50.892;6.906;2024-03-23T08:59:49;14.60;;;7.07;;
18716;SDS011;9487;50.892;6.906;2024-03-23T09:02:15;11.97;;;6.73;;
18716;SDS011;9487;50.892;6.906;2024-03-23T09:04:42;14.47;;;6.47;;
18716;SDS011;9487;50.892;6.906;2024-03-23T09:07:09;13.50;;;6.57;;
18716;SDS011;9487;50.892;6.906;2024-03-23T09:09:37;13.20;;;7.00;;
18716;SDS011;9487;50.892;6.906;2024-03-23T09:12:03;15.00;;;6.50;;
18716;SDS011;9487;50.892;6.906;2024-03-23T09:14:31;13.43;;;6.20;;
18716;SDS011;9487;50.892;6.906;2024-03-23T09:16:58;11.77;;;5.70;;
18716;SDS011;9487;50.892;6.906;2024-03-23T09:19:26;10.90;;;4.70;;
18716;SDS011;9487;50.892;6.906;2024-03-23T09:21:53;12.20;;;5.30;;
18716;SDS011;9487;50.892;6.906;2024-03-23T09:24:20;11.13;;;5.00;;
18716;SDS011;9487;50.892;6.906;2024-03-23T09:26:46;9.87;;;4.70;;
18716;SDS011;9487;50.892;6.906;2024-03-23T09:29:13;12.93;;;4.53;;
18716;SDS011;9487;50.892;6.906;2024-03-23T09:31:39;11.10;;;4.73;;
18716;SDS011;9487;50.892;6.906;2024-03-23T09:34:08;12.50;;;4.30;;
18716;SDS011;9487;50.892;6.906;2024-03-23T09:36:34;11.47;;;5.20;;
18716;SDS011;9487;50.892;6.906;2024-03-23T09:39:00;13.13;;;5.83;;
18716;SDS011;9487;50.892;6.906;2024-03-23T09:41:28;12.50;;;5.77;;
18716;SDS011;9487;50.892;6.906;2024-03-23T09:43:55;12.50;;;4.43;;
18716;SDS011;9487;50.892;6.906;2024-03-23T09:46:21;14.03;;;4.80;;
18716;SDS011;9487;50.892;6.906;2024-03-23T09:48:48;7.87;;;3.37;;
18716;SDS011;9487;50.892;6.906;2024-03-23T09:51:16;11.80;;;4.00;;
18716;SDS011;9487;50.892;6.906;2024-03-23T09:53:43;8.13;;;3.03;;
18716;SDS011;9487;50.892;6.906;2024-03-23T09:56:08;11.50;;;3.03;;
18716;SDS011;9487;50.892;6.906;2024-03-23T09:58:36;6.10;;;2.97;;
18716;SDS011;9487;50.892;6.906;2024-03-23T10:01:02;6.30;;;2.63;;
18716;SDS011;9487;50.892;6.906;2024-03-23T10:03:29;6.33;;;2.57;;
18716;SDS011;9487;50.892;6.906;2024-03-23T10:06:02;7.67;;;2.70;;
18716;SDS011;9487;50.892;6.906;2024-03-23T10:08:31;6.80;;;2.80;;
18716;SDS011;9487;50.892;6.906;2024-03-23T10:10:58;7.63;;;2.60;;
18716;SDS011;9487;50.892;6.906;2024-03-23T10:13:41;6.03;;;2.73;;
18716;SDS011;9487;50.892;6.906;2024-03-23T10:16:08;6.50;;;2.47;;
18716;SDS011;9487;50.892;6.906;2024-03-23T10:18:37;7.13;;;2.33;;
18716;SDS011;9487;50.892;6.906;2024-03-23T10:21:07;4.10;;;2.10;;
18716;SDS011;9487;50.892;6.906;2024-03-23T10:23:37;6.57;;;2.40;;
18716;SDS011;9487;50.892;6.906;2024-03-23T10:26:14;9.40;;;2.63;;
18716;SDS011;9487;50.892;6.906;2024-03-23T10:28:56;8.87;;;2.83;;
18716;SDS011;9487;50.892;6.906;2024-03-23T10:31:24;4.67;;;1.97;;
18716;SDS011;9487;50.892;6.906;2024-03-23T10:33:51;7.33;;;2.40;;
18716;SDS011;9487;50.892;6.906;2024-03-23T10:36:19;5.77;;;1.70;;
18716;SDS011;9487;50.892;6.906;2024-03-23T10:38:49;6.07;;;2.00;;
18716;SDS011;9487;50.892;6.906;2024-03-23T10:41:16;6.97;;;1.70;;
18716;SDS011;9487;50.892;6.906;2024-03-23T10:43:44;5.73;;;2.20;;
18716;SDS011;9487;50.892;6.906;2024-03-23T10:46:12;7.73;;;2.10;;
18716;SDS011;9487;50.892;6.906;2024-03-23T10:48:39;10.13;;;2.97;;
18716;SDS011;9487;50.892;6.906;2024-03-23T10:51:06;6.20;;;2.10;;
18716;SDS011;9487;50.892;6.906;2024-03-23T10:53:34;7.00;;;2.67;;
18716;SDS011;9487;50.892;6.906;2024-03-23T10:56:04;5.17;;;2.27;;
18716;SDS011;9487;50.892;6.906;2024-03-23T10:58:32;4.97;;;2.10;;
18716;SDS011;9487;50.892;6.906;2024-03-23T11:01:02;7.13;;;1.80;;
18716;SDS011;9487;50.892;6.906;2024-03-23T11:03:32;3.33;;;1.00;;
18716;SDS011;9487;50.892;6.906;2024-03-23T11:05:59;6.50;;;1.40;;
18716;SDS011;9487;50.892;6.906;2024-03-23T11:08:31;2.93;;;1.70;;
18716;SDS011;9487;50.892;6.906;2024-03-23T11:13:59;5.83;;;1.90;;
18716;SDS011;9487;50.892;6.906;2024-03-23T11:16:25;3.70;;;1.80;;
18716;SDS011;9487;50.892;6.906;2024-03-23T11:18:55;6.43;;;1.87;;
18716;SDS011;9487;50.892;6.906;2024-03-23T11:22:08;4.70;;;1.70;;
18716;SDS011;9487;50.892;6.906;2024-03-23T11:24:34;5.27;;;1.60;;
18716;SDS011;9487;50.892;6.906;2024-03-23T11:27:02;5.70;;;2.30;;
18716;SDS011;9487;50.892;6.906;2024-03-23T11:29:41;7.23;;;2.37;;
18716;SDS011;9487;50.892;6.906;2024-03-23T11:32:07;6.70;;;2.00;;
18716;SDS011;9487;50.892;6.906;2024-03-23T11:34:38;4.90;;;1.87;;
18716;SDS011;9487;50.892;6.906;2024-03-23T11:37:04;3.10;;;1.70;;
18716;SDS011;9487;50.892;6.906;2024-03-23T11:39:31;5.27;;;1.87;;
18716;SDS011;9487;50.892;6.906;2024-03-23T11:41:57;4.50;;;1.40;;
18716;SDS011;9487;50.892;6.906;2024-03-23T11:44:26;4.70;;;1.53;;
18716;SDS011;9487;50.892;6.906;2024-03-23T11:46:52;4.87;;;1.77;;
18716;SDS011;9487;50.892;6.906;2024-03-23T11:49:20;5.50;;;1.80;;
18716;SDS011;9487;50.892;6.906;2024-03-23T11:51:47;3.77;;;1.80;;
18716;SDS011;9487;50.892;6.906;2024-03-23T11:54:14;3.33;;;1.50;;
18716;SDS011;9487;50.892;6.906;2024-03-23T11:56:40;4.87;;;1.77;;
18716;SDS011;9487;50.892;6.906;2024-03-23T11:59:31;3.97;;;1.70;;
18716;SDS011;9487;50.892;6.906;2024-03-23T12:02:00;4.70;;;1.10;;
18716;SDS011;9487;50.892;6.906;2024-03-23T12:04:31;2.40;;;1.07;;
18716;SDS011;9487;50.892;6.906;2024-03-23T12:07:11;0.80;;;0.70;;
18716;SDS011;9487;50.892;6.906;2024-03-23T12:09:38;2.57;;;1.03;;
18716;SDS011;9487;50.892;6.906;2024-03-23T12:12:10;11.67;;;1.57;;
18716;SDS011;9487;50.892;6.906;2024-03-23T12:14:41;5.33;;;1.53;;
18716;SDS011;9487;50.892;6.906;2024-03-23T12:17:10;5.67;;;2.13;;
18716;SDS011;9487;50.892;6.906;2024-03-23T12:19:38;5.20;;;1.63;;
18716;SDS011;9487;50.892;6.906;2024-03-23T12:22:05;5.53;;;2.17;;
18716;SDS011;9487;50.892;6.906;2024-03-23T12:24:34;3.93;;;2.20;;
18716;SDS011;9487;50.892;6.906;2024-03-23T12:27:00;5.57;;;1.60;;
18716;SDS011;9487;50.892;6.906;2024-03-23T12:29:28;2.10;;;1.27;;
18716;SDS011;9487;50.892;6.906;2024-03-23T12:31:56;1.80;;;1.00;;
18716;SDS011;9487;50.892;6.906;2024-03-23T12:34:25;2.10;;;1.20;;
18716;SDS011;9487;50.892;6.906;2024-03-23T12:36:52;1.37;;;0.97;;
18716;SDS011;9487;50.892;6.906;2024-03-23T12:39:18;1.83;;;0.80;;
18716;SDS011;9487;50.892;6.906;2024-03-23T12:41:45;1.07;;;0.60;;
18716;SDS011;9487;50.892;6.906;2024-03-23T12:44:11;2.13;;;0.67;;
18716;SDS011;9487;50.892;6.906;2024-03-23T12:46:39;0.63;;;0.50;;
18716;SDS011;9487;50.892;6.906;2024-03-23T12:49:06;2.40;;;0.70;;
18716;SDS011;9487;50.892;6.906;2024-03-23T12:51:34;1.47;;;0.80;;
18716;SDS011;9487;50.892;6.906;2024-03-23T12:54:00;2.33;;;0.93;;
18716;SDS011;9487;50.892;6.906;2024-03-23T12:56:27;1.50;;;0.63;;
18716;SDS011;9487;50.892;6.906;2024-03-23T12:58:53;3.43;;;0.77;;
18716;SDS011;9487;50.892;6.906;2024-03-23T13:01:22;2.30;;;1.00;;
18716;SDS011;9487;50.892;6.906;2024-03-23T13:03:48;2.57;;;0.90;;
18716;SDS011;9487;50.892;6.906;2024-03-23T13:06:16;2.57;;;0.60;;
18716;SDS011;9487;50.892;6.906;2024-03-23T13:08:43;1.50;;;0.90;;
18716;SDS011;9487;50.892;6.906;2024-03-23T13:11:11;2.53;;;1.60;;
18716;SDS011;9487;50.892;6.906;2024-03-23T13:13:38;4.97;;;2.10;;
18716;SDS011;9487;50.892;6.906;2024-03-23T13:16:05;2.97;;;2.07;;
18716;SDS011;9487;50.892;6.906;2024-03-23T13:18:31;4.60;;;2.03;;
18716;SDS011;9487;50.892;6.906;2024-03-23T13:20:58;4.10;;;2.37;;
18716;SDS011;9487;50.892;6.906;2024-03-23T13:23:26;4.13;;;2.30;;
18716;SDS011;9487;50.892;6.906;2024-03-23T13:25:53;4.33;;;3.87;;
18716;SDS011;9487;50.892;6.906;2024-03-23T13:28:21;6.47;;;3.20;;
18716;SDS011;9487;50.892;6.906;2024-03-23T13:30:51;6.47;;;3.47;;
18716;SDS011;9487;50.892;6.906;2024-03-23T13:33:17;6.70;;;3.00;;
18716;SDS011;9487;50.892;6.906;2024-03-23T13:35:50;5.27;;;3.17;;
18716;SDS011;9487;50.892;6.906;2024-03-23T13:38:17;5.60;;;2.40;;
18716;SDS011;9487;50.892;6.906;2024-03-23T13:40:52;3.40;;;2.40;;
18716;SDS011;9487;50.892;6.906;2024-03-23T13:43:18;4.57;;;2.50;;
18716;SDS011;9487;50.892;6.906;2024-03-23T13:45:46;5.93;;;2.53;;
18716;SDS011;9487;50.892;6.906;2024-03-23T13:48:12;4.30;;;2.40;;
18716;SDS011;9487;50.892;6.906;2024-03-23T13:50:39;4.30;;;2.23;;
18716;SDS011;9487;50.892;6.906;2024-03-23T13:53:05;6.07;;;2.47;;
18716;SDS011;9487;50.892;6.906;2024-03-23T13:55:33;5.60;;;2.30;;
18716;SDS011;9487;50.892;6.906;2024-03-23T13:58:00;5.70;;;2.13;;
18716;SDS011;9487;50.892;6.906;2024-03-23T14:00:27;4.33;;;1.93;;
18716;SDS011;9487;50.892;6.906;2024-03-23T14:02:53;2.43;;;1.07;;
18716;SDS011;9487;50.892;6.906;2024-03-23T14:05:20;4.23;;;1.30;;
18716;SDS011;9487;50.892;6.906;2024-03-23T14:07:46;3.33;;;1.33;;
18716;SDS011;9487;50.892;6.906;2024-03-23T14:10:14;2.93;;;1.70;;
18716;SDS011;9487;50.892;6.906;2024-03-23T14:12:40;3.97;;;1.47;;
18716;SDS011;9487;50.892;6.906;2024-03-23T14:15:09;2.50;;;1.37;;
18716;SDS011;9487;50.892;6.906;2024-03-23T14:17:35;3.50;;;1.33;;
18716;SDS011;9487;50.892;6.906;2024-03-23T14:20:02;3.43;;;1.40;;
18716;SDS011;9487;50.892;6.906;2024-03-23T14:22:30;2.30;;;1.30;;
18716;SDS011;9487;50.892;6.906;2024-03-23T14:24:57;4.03;;;1.80;;
18716;SDS011;9487;50.892;6.906;2024-03-23T14:27:23;2.63;;;1.40;;
18716;SDS011;9487;50.892;6.906;2024-03-23T14:29:50;2.57;;;1.70;;
18716;SDS011;9487;50.892;6.906;2024-03-23T14:32:18;3.67;;;2.00;;
18716;SDS011;9487;50.892;6.906;2024-03-23T14:34:45;4.80;;;1.80;;
18716;SDS011;9487;50.892;6.906;2024-03-23T14:37:11;2.50;;;1.70;;
18716;SDS011;9487;50.892;6.906;2024-03-23T14:39:40;2.73;;;1.67;;
18716;SDS011;9487;50.892;6.906;2024-03-23T14:42:06;2.20;;;1.53;;
18716;SDS011;9487;50.892;6.906;2024-03-23T14:44:34;4.63;;;1.80;;
18716;SDS011;9487;50.892;6.906;2024-03-23T14:47:00;3.60;;;1.80;;
18716;SDS011;9487;50.892;6.906;2024-03-23T14:49:28;4.80;;;1.80;;
18716;SDS011;9487;50.892;6.906;2024-03-23T14:51:54;4.23;;;1.90;;
18716;SDS011;9487;50.892;6.906;2024-03-23T14:54:21;5.33;;;1.57;;
18716;SDS011;9487;50.892;6.906;2024-03-23T14:56:47;2.80;;;1.10;;
18716;SDS011;9487;50.892;6.906;2024-03-23T14:59:15;2.93;;;1.10;;
18716;SDS011;9487;50.892;6.906;2024-03-23T15:01:41;3.27;;;1.77;;
18716;SDS011;9487;50.892;6.906;2024-03-23T15:04:08;2.67;;;1.70;;
18716;SDS011;9487;50.892;6.906;2024-03-23T15:06:36;4.80;;;2.77;;
18716;SDS011;9487;50.892;6.906;2024-03-23T15:09:03;3.60;;;2.17;;
18716;SDS011;9487;50.892;6.906;2024-03-23T15:11:32;3.53;;;2.10;;
18716;SDS011;9487;50.892;6.906;2024-03-23T15:13:59;3.70;;;2.17;;
18716;SDS011;9487;50.892;6.906;2024-03-23T15:16:25;3.13;;;2.13;;
18716;SDS011;9487;50.892;6.906;2024-03-23T15:18:52;3.97;;;1.87;;
18716;SDS011;9487;50.892;6.906;2024-03-23T15:21:18;3.20;;;1.47;;
18716;SDS011;9487;50.892;6.906;2024-03-23T15:23:47;2.80;;;1.43;;
18716;SDS011;9487;50.892;6.906;2024-03-23T15:26:13;4.50;;;1.40;;
18716;SDS011;9487;50.892;6.906;2024-03-23T15:28:41;1.77;;;1.13;;
18716;SDS011;9487;50.892;6.906;2024-03-23T15:31:19;2.80;;;1.43;;
18716;SDS011;9487;50.892;6.906;2024-03-23T15:33:46;1.50;;;1.17;;
18716;SDS011;9487;50.892;6.906;2024-03-23T15:36:12;3.17;;;1.53;;
18716;SDS011;9487;50.892;6.906;2024-03-23T15:38:39;2.53;;;1.50;;
18716;SDS011;9487;50.892;6.906;2024-03-23T15:41:06;3.03;;;1.77;;
18716;SDS011;9487;50.892;6.906;2024-03-23T15:43:33;3.07;;;1.70;;
18716;SDS011;9487;50.892;6.906;2024-03-23T15:45:59;1.73;;;1.23;;
18716;SDS011;9487;50.892;6.906;2024-03-23T15:48:27;2.77;;;1.60;;
18716;SDS011;9487;50.892;6.906;2024-03-23T15:50:55;3.90;;;1.67;;